Currently 78°F in Perris, California, USA
78°F
82°F / 47°F
5 mph NW
0.00"
Monday, March 18, 2019 4:37 PM PDT

Perris, California Weather Summary
Last 36 Hours

Temperature Winds Hourly Humidity Dewpoint
Time Report Norm Report Norm Max Gusts Precip. Rpt. Norm Rpt. Norm Pressure
1Mon 04:37 PM  77.6°F  72°F  5 mph NW  5 mph  15 mph  0.00"  36%  34%  48°F  41°F  29.90"
Mon 04:00 PM  80.4°F  72°F  7 mph S  5 mph  11 mph  0.00"  29%  33%  44°F  41°F  29.91"
2Mon 03:43 PM  82.0°F  72°F  7 mph S  5 mph  9 mph  ----  25%  33%  41°F  41°F  29.91"
Mon 03:00 PM  80.5°F  72°F  2 mph SW  5 mph  9 mph  0.00"  28%  33%  43°F  41°F  29.92"
Mon 02:00 PM  79.6°F  72°F  3 mph SE  4 mph  10 mph  0.00"  27%  34%  41°F  41°F  29.94"
Mon 01:00 PM  79.2°F  70°F  2 mph W  3 mph  7 mph  0.00"  29%  37%  43°F  42°F  29.97"
Mon 12:00 PM  76.5°F  68°F  2 mph NW  3 mph  3 mph  0.00"  37%  44%  47°F  44°F  29.99"
Mon 11:00 AM  72.7°F  64°F  calm  3 mph  2 mph  0.00"  48%  55%  51°F  46°F  30.01"
Mon 10:00 AM  63.6°F  59°F  calm  2 mph  1 mph  0.00"  63%  67%  51°F  48°F  30.01"
Mon 09:00 AM  55.7°F  53°F  calm  2 mph  4 mph  0.00"  86%  81%  51°F  47°F  30.01"
Mon 08:00 AM  47.6°F  49°F  calm  1 mph  5 mph  0.00"  95%  86%  46°F  45°F  30.02"
3Mon 07:48 AM  47.4°F  48°F  calm  1 mph  4 mph  ----  95%  86%  46°F  44°F  30.01"
Mon 07:00 AM  48.7°F  48°F  calm  1 mph  none  0.00"  92%  85%  46°F  44°F  30.00"
Mon 06:00 AM  48.2°F  49°F  calm  1 mph  none  0.00"  92%  85%  46°F  44°F  29.99"
Mon 05:00 AM  49.6°F  49°F  calm  1 mph  none  0.00"  90%  84%  47°F  45°F  29.98"
Mon 04:00 AM  51.3°F  50°F  calm  1 mph  1 mph  0.00"  88%  83%  48°F  45°F  29.97"
Mon 03:00 AM  51.7°F  51°F  calm  1 mph  1 mph  0.00"  88%  81%  48°F  45°F  29.98"
Mon 02:00 AM  54.6°F  52°F  calm  2 mph  5 mph  0.00"  81%  78%  48°F  45°F  29.99"
Mon 01:00 AM  54.3°F  54°F  3 mph SE  2 mph  7 mph  0.00"  82%  75%  49°F  46°F  30.01"
Mon 12:00 AM  56.5°F  55°F  3 mph SE  2 mph  5 mph  0.00"  78%  72%  49°F  46°F  30.00"
Sun 11:00 PM  58.6°F  56°F  4 mph S  2 mph  3 mph  0.00"  74%  70%  50°F  46°F  30.00"
Sun 10:00 PM  59.3°F  58°F  calm  2 mph  9 mph  0.00"  74%  66%  51°F  46°F  30.00"
Sun 09:00 PM  61.5°F  59°F  6 mph SE  3 mph  10 mph  0.00"  71%  61%  52°F  46°F  29.98"
Sun 08:00 PM  70.1°F  62°F  2 mph E  3 mph  10 mph  0.00"  44%  55%  46°F  45°F  29.95"
Sun 07:00 PM  71.9°F  65°F  4 mph SE  4 mph  7 mph  0.00"  35%  48%  42°F  44°F  29.93"
Sun 06:00 PM  75.9°F  69°F  2 mph E  5 mph  8 mph  0.00"  35%  41%  45°F  43°F  29.92"
Sun 05:00 PM  77.0°F  71°F  4 mph E  5 mph  9 mph  0.00"  32%  36%  44°F  42°F  29.92"
Sun 04:00 PM  77.4°F  72°F  2 mph NE  5 mph  9 mph  0.00"  32%  34%  44°F  41°F  29.93"
Sun 03:00 PM  78.1°F  72°F  1 mph E  5 mph  16 mph  0.00"  33%  34%  46°F  41°F  29.95"
Sun 02:00 PM  77.7°F  72°F  5 mph E  4 mph  11 mph  0.00"  31%  35%  43°F  42°F  29.98"
Sun 01:00 PM  76.6°F  70°F  4 mph E  3 mph  14 mph  0.00"  33%  37%  44°F  42°F  30.01"
Sun 12:00 PM  75.2°F  68°F  2 mph E  3 mph  14 mph  0.00"  35%  44%  45°F  44°F  30.02"
Sun 11:00 AM  70.9°F  64°F  1 mph W  3 mph  4 mph  0.00"  45%  55%  48°F  47°F  30.05"
Sun 10:00 AM  63.5°F  59°F  calm  2 mph  5 mph  0.00"  57%  67%  47°F  48°F  30.05"
Sun 09:00 AM  55.1°F  53°F  calm  2 mph  1 mph  0.00"  78%  80%  48°F  47°F  30.05"
Sun 08:00 AM  46.7°F  49°F  1 mph NE  1 mph  3 mph  0.00"  86%  86%  43°F  45°F  30.05"
Sun 07:00 AM  47.2°F  49°F  calm  1 mph  6 mph  0.00"  83%  85%  42°F  44°F  30.05"
Sun 06:00 AM  48.5°F  49°F  calm  1 mph  5 mph  0.00"  77%  85%  41°F  44°F  30.04"
Sun 05:00 AM  47.9°F  50°F  4 mph SE  1 mph  5 mph  0.00"  80%  84%  42°F  45°F  30.03"

  1. Current weather data. No green row appears if the current weather data is also the high or low for the current day.
  2. High temperature for the current day.
  3. Low temperature for the current day.

The Perris, California weather pages are a service of WeatherCurrents. Perris is located in Southern California's Inland Empire, south of Riverside and north of Sun City, along the Interstate 215 freeway.
Copyright ©Mon Mar 18 16:38:00 PDT 2019  WeatherCurrents. All rights reserved. - Submit questions and comments - Privacy Policy

This page automatically refreshes every 10 minutes.